This is the latest recevied weather packets stored in our database for station/object JE7UPL-13. If no packets are shown the sender has not sent any weather packets the latest 10 day(s).
| Time | Temp. | Humidity | Pressure | Rain* | Wind** | Luminosity | Snow |
|---|---|---|---|---|---|---|---|
| 1788409806 | 25° C | 82% | 1004 hPa | 0 mm | - | - | - |
| 1788408905 | 25.56° C | 81% | 1004.4 hPa | 0 mm | - | - | - |
| 1788408006 | 25.56° C | 81% | 1004.6 hPa | 0 mm | - | - | - |
| 1788407106 | 25° C | 82% | 1004.6 hPa | 0 mm | - | - | - |
| 1788406206 | 25° C | 82% | 1004.7 hPa | 0 mm | - | - | - |
| 1788405305 | 25° C | 84% | 1004.6 hPa | 0 mm | - | - | - |
| 1788404406 | 24.44° C | 85% | 1004.5 hPa | 0 mm | - | - | - |
| 1788403505 | 24.44° C | 86% | 1004.5 hPa | 0 mm | - | - | - |
| 1788402606 | 25° C | 86% | 1004.8 hPa | 0 mm | - | - | - |
| 1788378306 | 23.33° C | 97% | 1006.4 hPa | 0 mm | - | - | - |
| 1788377406 | 22.78° C | 97% | 1006.3 hPa | 0 mm | - | - | - |
| 1788376506 | 22.78° C | 97% | 1006.3 hPa | 0 mm | - | - | - |
| 1788375606 | 22.78° C | 97% | 1006.3 hPa | 0 mm | - | - | - |
| 1788373806 | 22.78° C | 96% | 1005.7 hPa | 0 mm | - | - | - |
| 1788372906 | 22.78° C | 95% | 1006 hPa | 0 mm | - | - | - |
| 1788372006 | 22.78° C | 96% | 1006 hPa | 0 mm | - | - | - |
| 1788371105 | 22.78° C | 96% | 1006 hPa | 0 mm | - | - | - |
| 1788370206 | 22.78° C | 96% | 1006.1 hPa | 0 mm | - | - | - |
| 1788369306 | 22.22° C | 94% | 1006.6 hPa | 0 mm | - | - | - |
| 1788367506 | 22.22° C | 94% | 1006.2 hPa | 0 mm | - | - | - |
| 1788366606 | 22.22° C | 94% | 1006 hPa | 0 mm | - | - | - |
| 1788363906 | 23.33° C | 96% | 1006 hPa | 0 mm | - | - | - |
| 1788363006 | 23.33° C | 95% | 1005.9 hPa | 0 mm | - | - | - |
| 1788361211 | 23.33° C | 95% | 1006.9 hPa | 0 mm | - | - | - |
| 1788359406 | 23.33° C | 95% | 1006.6 hPa | 0 mm | - | - | - |
* Rain latest hour (hover to see other rain measurements)
** Current wind speed in m/s (hover to see current wind gust speed)